createdAt,value
2019-05-01T00:00:53.289Z,19.50
2019-05-01T00:01:53.289Z,18.60
2019-05-01T00:02:53.288Z,18.40
2019-05-01T00:03:53.282Z,18.00
2019-05-01T00:04:53.258Z,18.40
2019-05-01T00:05:53.254Z,17.80
2019-05-01T00:06:53.287Z,18.30
2019-05-01T00:07:53.237Z,18.20
2019-05-01T00:08:53.215Z,17.80
2019-05-01T00:09:53.216Z,17.40
2019-05-01T00:10:53.193Z,17.80
2019-05-01T00:11:53.177Z,17.00
2019-05-01T00:12:53.165Z,17.80
2019-05-01T00:13:53.182Z,17.70
2019-05-01T00:14:53.145Z,17.50
2019-05-01T00:15:53.142Z,17.80
2019-05-01T00:16:53.123Z,17.50
2019-05-01T00:17:53.120Z,17.40
2019-05-01T00:18:53.115Z,18.20
2019-05-01T00:19:53.100Z,18.00
2019-05-01T00:20:53.087Z,17.30
2019-05-01T00:21:53.083Z,17.00
2019-05-01T00:22:53.070Z,17.40
2019-05-01T00:23:53.068Z,18.10
2019-05-01T00:24:53.053Z,17.90
2019-05-01T00:25:53.035Z,17.20
2019-05-01T00:26:53.027Z,17.10
2019-05-01T00:27:53.019Z,17.50
2019-05-01T00:28:52.998Z,17.40
2019-05-01T00:29:52.987Z,17.10
2019-05-01T00:30:52.975Z,17.60
2019-05-01T00:31:52.984Z,17.30
2019-05-01T00:32:52.964Z,17.50
2019-05-01T00:33:52.945Z,17.10
2019-05-01T00:34:52.943Z,17.70
2019-05-01T00:35:52.932Z,17.20
2019-05-01T00:36:52.922Z,16.80
2019-05-01T00:37:52.904Z,16.70
2019-05-01T00:38:52.893Z,17.90
2019-05-01T00:39:52.883Z,17.70
2019-05-01T00:40:52.869Z,17.10
2019-05-01T00:41:52.870Z,17.30
2019-05-01T00:42:52.850Z,17.90
2019-05-01T00:43:52.849Z,16.60
2019-05-01T00:44:52.829Z,17.20
2019-05-01T00:45:52.818Z,16.20
2019-05-01T00:46:52.809Z,17.60
2019-05-01T00:47:52.796Z,16.80
2019-05-01T00:48:52.797Z,15.60
2019-05-01T00:49:52.775Z,17.70
2019-05-01T00:50:52.768Z,18.10
2019-05-01T00:51:52.746Z,18.00
2019-05-01T00:52:52.741Z,16.90
2019-05-01T00:53:52.769Z,17.30
2019-05-01T00:54:52.729Z,16.90
2019-05-01T00:55:52.714Z,17.50
2019-05-01T00:58:01.632Z,17.00
2019-05-01T00:59:01.599Z,17.60
2019-05-01T01:00:01.579Z,17.70
2019-05-01T01:01:01.570Z,17.10
2019-05-01T01:02:01.557Z,17.50
2019-05-01T01:03:01.567Z,17.80
2019-05-01T01:04:01.529Z,18.30
2019-05-01T01:05:01.528Z,17.60
2019-05-01T01:06:01.529Z,17.50
2019-05-01T01:07:01.507Z,17.40
2019-05-01T01:08:01.503Z,18.50
2019-05-01T01:09:01.497Z,18.70
2019-05-01T01:10:01.475Z,18.00
2019-05-01T01:11:01.464Z,18.50
2019-05-01T01:12:01.446Z,16.30
2019-05-01T01:13:01.446Z,17.90
2019-05-01T01:14:01.433Z,17.70
2019-05-01T01:15:01.423Z,18.70
2019-05-01T01:16:01.411Z,17.20
2019-05-01T01:17:01.402Z,16.70
2019-05-01T01:18:01.401Z,18.20
2019-05-01T01:19:01.371Z,17.50
2019-05-01T01:20:01.361Z,16.50
2019-05-01T01:21:01.351Z,17.70
2019-05-01T01:22:01.347Z,17.90
2019-05-01T01:23:01.342Z,17.50
2019-05-01T01:24:01.332Z,17.50
2019-05-01T01:25:01.338Z,17.40
2019-05-01T01:26:01.297Z,17.60
2019-05-01T01:27:01.287Z,19.10
2019-05-01T01:28:01.286Z,18.00
2019-05-01T01:29:01.266Z,18.50
2019-05-01T01:30:01.286Z,18.70
2019-05-01T01:31:01.247Z,18.30
2019-05-01T01:32:01.235Z,18.00
2019-05-01T01:33:01.223Z,18.30
2019-05-01T01:34:01.212Z,18.20
2019-05-01T01:35:01.214Z,18.20
2019-05-01T01:36:01.194Z,18.20
2019-05-01T01:37:01.183Z,17.00
2019-05-01T01:38:01.174Z,17.50
2019-05-01T01:39:01.188Z,17.90
2019-05-01T01:40:01.157Z,17.80
2019-05-01T01:41:01.131Z,18.10
2019-05-01T01:42:01.130Z,18.60
2019-05-01T01:43:01.120Z,18.00
2019-05-01T01:44:01.121Z,18.70
2019-05-01T01:45:01.101Z,17.50
2019-05-01T01:46:01.082Z,18.60
2019-05-01T01:47:01.068Z,18.10
2019-05-01T01:48:01.073Z,18.50
2019-05-01T01:49:01.068Z,17.00
2019-05-01T01:50:01.047Z,17.90
2019-05-01T01:51:01.027Z,17.80
2019-05-01T01:52:01.018Z,18.20
2019-05-01T01:53:01.006Z,19.00
2019-05-01T01:54:01.013Z,18.70
2019-05-01T01:55:00.985Z,18.10
2019-05-01T01:56:00.975Z,18.00
2019-05-01T01:57:00.965Z,17.50
2019-05-01T01:58:00.954Z,19.00
2019-05-01T01:59:00.956Z,18.00
2019-05-01T02:00:00.933Z,18.20
2019-05-01T02:01:09.355Z,17.70
2019-05-01T02:02:01.902Z,17.80
2019-05-01T02:03:00.903Z,17.90
2019-05-01T02:04:00.892Z,19.70
2019-05-01T02:05:00.871Z,18.60
2019-05-01T02:06:00.870Z,18.00
2019-05-01T02:07:00.863Z,17.80
2019-05-01T02:08:00.849Z,18.20
2019-05-01T02:09:00.840Z,18.70
2019-05-01T02:10:00.827Z,17.80
2019-05-01T02:11:00.818Z,18.70
2019-05-01T02:12:00.809Z,18.60
2019-05-01T02:13:00.825Z,19.00
2019-05-01T02:14:00.777Z,19.50
2019-05-01T02:15:00.780Z,19.50
2019-05-01T02:16:00.780Z,18.80
2019-05-01T02:17:00.747Z,20.40
2019-05-01T02:18:00.735Z,18.30
2019-05-01T02:19:00.738Z,19.40
2019-05-01T02:20:00.725Z,19.20
2019-05-01T02:21:00.714Z,19.40
2019-05-01T02:22:00.694Z,18.60
2019-05-01T02:23:00.688Z,18.70
2019-05-01T02:24:00.674Z,19.40
2019-05-01T02:25:00.666Z,20.20
2019-05-01T02:26:00.662Z,18.70
2019-05-01T02:27:00.644Z,20.00
2019-05-01T02:28:00.642Z,19.80
2019-05-01T02:29:00.621Z,19.50
2019-05-01T02:30:00.636Z,19.50
2019-05-01T02:31:00.611Z,19.40
2019-05-01T02:32:00.656Z,19.60
2019-05-01T02:33:00.579Z,19.50
2019-05-01T02:34:00.570Z,20.10
2019-05-01T02:35:00.560Z,20.40
2019-05-01T02:36:00.578Z,20.60
2019-05-01T02:37:00.548Z,21.10
2019-05-01T02:38:00.520Z,20.80
2019-05-01T02:39:00.528Z,20.70
2019-05-01T02:40:00.505Z,21.20
2019-05-01T02:41:00.491Z,20.30
2019-05-01T02:42:00.567Z,20.40
2019-05-01T02:43:00.481Z,20.30
2019-05-01T02:44:00.466Z,19.60
2019-05-01T02:45:00.445Z,21.00
2019-05-01T02:46:00.459Z,20.60
2019-05-01T02:47:00.501Z,21.60
2019-05-01T02:48:00.413Z,22.10
2019-05-01T02:49:00.408Z,22.00
2019-05-01T02:50:00.394Z,23.30
2019-05-01T02:51:00.383Z,23.80
2019-05-01T02:52:00.394Z,23.50
2019-05-01T02:53:00.365Z,23.70
2019-05-01T02:54:00.351Z,25.20
2019-05-01T02:55:00.355Z,25.20
2019-05-01T02:56:00.330Z,25.80
2019-05-01T02:57:00.330Z,26.40
2019-05-01T02:58:00.309Z,26.10
2019-05-01T02:59:00.299Z,27.60
2019-05-01T03:00:00.299Z,26.80
2019-05-01T03:01:00.281Z,27.80
2019-05-01T03:02:00.278Z,27.00
2019-05-01T03:03:00.259Z,26.90
2019-05-01T03:04:00.236Z,27.10
2019-05-01T03:05:00.247Z,29.00
2019-05-01T03:06:00.305Z,27.20
2019-05-01T03:07:00.218Z,27.70
2019-05-01T03:08:00.206Z,27.60
2019-05-01T03:09:00.206Z,27.60
2019-05-01T03:10:00.189Z,28.00
2019-05-01T03:11:00.163Z,28.20
2019-05-01T03:12:00.152Z,27.70
2019-05-01T03:13:00.150Z,28.30
2019-05-01T03:14:00.143Z,27.90
2019-05-01T03:15:00.124Z,26.50
2019-05-01T03:16:00.112Z,26.80
2019-05-01T03:17:00.112Z,26.80
2019-05-01T03:18:00.095Z,27.20
2019-05-01T03:19:00.080Z,27.60
2019-05-01T03:20:00.075Z,28.20
2019-05-01T03:21:00.078Z,28.20
2019-05-01T03:22:00.059Z,27.30
2019-05-01T03:23:00.039Z,28.00
2019-05-01T03:24:00.026Z,28.00
2019-05-01T03:25:00.017Z,28.20
2019-05-01T03:26:00.008Z,28.60
2019-05-01T03:27:00.009Z,28.80
2019-05-01T03:27:59.986Z,28.40
2019-05-01T03:28:59.998Z,29.10
2019-05-01T03:30:00.001Z,29.40
2019-05-01T03:30:59.956Z,29.20
2019-05-01T03:32:17.132Z,30.40
2019-05-01T03:33:00.925Z,28.70
2019-05-01T03:33:59.935Z,30.50
2019-05-01T03:34:59.930Z,29.80
2019-05-01T03:35:59.904Z,30.30
2019-05-01T03:36:59.892Z,30.50
2019-05-01T03:37:59.880Z,30.30
2019-05-01T03:38:59.872Z,31.10
2019-05-01T03:39:59.855Z,29.60
2019-05-01T03:40:59.841Z,30.30
2019-05-01T03:41:59.896Z,30.20
2019-05-01T03:42:59.831Z,31.00
2019-05-01T03:43:59.815Z,30.90
2019-05-01T03:44:59.827Z,31.00
2019-05-01T03:45:59.793Z,31.60
2019-05-01T03:46:59.781Z,30.60
2019-05-01T03:47:59.807Z,31.50
2019-05-01T03:48:59.767Z,31.10
2019-05-01T03:49:59.761Z,31.60
2019-05-01T03:50:59.737Z,32.30
2019-05-01T03:51:59.727Z,31.90
2019-05-01T03:52:59.738Z,33.00
2019-05-01T03:53:59.705Z,32.20
2019-05-01T03:54:59.705Z,31.40
2019-05-01T03:55:59.686Z,30.80
2019-05-01T03:56:59.678Z,31.50
2019-05-01T03:57:59.694Z,30.50
2019-05-01T03:58:59.654Z,30.90
2019-05-01T03:59:59.643Z,31.50
2019-05-01T04:00:59.641Z,29.80
2019-05-01T04:01:59.624Z,31.20
2019-05-01T04:02:59.622Z,30.90
2019-05-01T04:03:59.612Z,32.30
2019-05-01T04:04:59.580Z,32.20
2019-05-01T04:05:59.570Z,32.50
2019-05-01T04:06:59.561Z,32.10
2019-05-01T04:07:59.584Z,32.50
2019-05-01T04:08:59.561Z,32.60
2019-05-01T04:09:59.551Z,30.60
2019-05-01T04:10:59.538Z,31.90
2019-05-01T04:11:59.555Z,31.20
2019-05-01T04:12:59.521Z,31.00
2019-05-01T04:13:59.531Z,30.60
2019-05-01T04:14:59.493Z,31.80
2019-05-01T04:15:59.488Z,31.80
2019-05-01T04:16:59.480Z,31.00
2019-05-01T04:17:59.456Z,30.80
2019-05-01T04:18:59.462Z,30.70
2019-05-01T04:19:59.432Z,30.90
2019-05-01T04:20:59.422Z,30.50
2019-05-01T04:21:59.404Z,31.10
2019-05-01T04:22:59.401Z,30.80
2019-05-01T04:23:59.382Z,32.10
2019-05-01T04:24:59.392Z,31.10
2019-05-01T04:25:59.367Z,31.40
2019-05-01T04:26:59.353Z,30.70
2019-05-01T04:27:59.357Z,29.50
2019-05-01T04:28:59.347Z,32.90
2019-05-01T04:29:59.320Z,29.60
2019-05-01T04:30:59.311Z,31.50
2019-05-01T04:31:59.303Z,31.20
2019-05-01T04:32:59.301Z,30.90
2019-05-01T04:33:59.284Z,30.60
2019-05-01T04:34:59.280Z,32.50
2019-05-01T04:35:59.259Z,32.30
2019-05-01T04:36:59.247Z,31.20
2019-05-01T04:37:59.251Z,31.00
2019-05-01T04:38:59.226Z,30.30
2019-05-01T04:39:59.219Z,30.60
2019-05-01T04:40:59.207Z,31.00
2019-05-01T04:41:59.196Z,30.20
2019-05-01T04:42:59.199Z,29.00
2019-05-01T04:43:59.180Z,31.50
2019-05-01T04:44:59.155Z,29.00
2019-05-01T04:45:59.157Z,29.60
2019-05-01T04:46:59.135Z,29.60
2019-05-01T04:47:59.143Z,30.30
2019-05-01T04:48:59.132Z,29.30
2019-05-01T04:49:59.111Z,28.90
2019-05-01T04:50:59.118Z,28.40
2019-05-01T04:51:59.121Z,29.40
2019-05-01T04:52:59.070Z,28.70
2019-05-01T04:53:59.062Z,29.40
2019-05-01T04:54:59.051Z,29.30
2019-05-01T04:55:59.038Z,29.00
2019-05-01T04:56:59.039Z,29.00
2019-05-01T04:57:59.049Z,29.50
2019-05-01T04:58:59.005Z,29.70
2019-05-01T04:59:58.998Z,30.00
2019-05-01T05:00:58.986Z,29.10
2019-05-01T05:01:58.979Z,28.50
2019-05-01T05:03:05.109Z,29.10
2019-05-01T05:03:59.955Z,28.80
2019-05-01T05:04:58.945Z,32.00
2019-05-01T05:05:58.937Z,31.60
2019-05-01T05:06:58.922Z,30.90
2019-05-01T05:07:58.925Z,30.80
2019-05-01T05:08:58.923Z,31.00
2019-05-01T05:09:58.884Z,31.00
2019-05-01T05:10:58.882Z,30.60
2019-05-01T05:11:58.874Z,31.60
2019-05-01T05:12:58.871Z,31.20
2019-05-01T05:13:58.860Z,30.80
2019-05-01T05:14:58.841Z,29.80
2019-05-01T05:15:58.822Z,31.20
2019-05-01T05:16:58.819Z,30.60
2019-05-01T05:17:58.813Z,28.90
2019-05-01T05:18:58.790Z,29.80
2019-05-01T05:19:58.799Z,30.40
2019-05-01T05:20:58.768Z,30.40
2019-05-01T05:21:58.768Z,30.50
2019-05-01T05:22:58.754Z,30.00
2019-05-01T05:23:58.758Z,27.40
2019-05-01T05:24:58.728Z,25.50
2019-05-01T05:25:58.718Z,23.90
2019-05-01T05:26:58.706Z,24.00
2019-05-01T05:27:58.695Z,22.50
2019-05-01T05:28:58.697Z,21.40
2019-05-01T05:29:58.675Z,22.90
2019-05-01T05:30:58.666Z,22.20
2019-05-01T05:31:58.653Z,22.60
2019-05-01T05:32:58.654Z,25.20
2019-05-01T05:33:58.636Z,27.10
2019-05-01T05:34:58.622Z,26.50
2019-05-01T05:35:58.602Z,27.80
2019-05-01T05:36:58.602Z,28.20
2019-05-01T05:37:58.599Z,28.80
2019-05-01T05:38:58.572Z,27.80
2019-05-01T05:39:58.572Z,28.50
2019-05-01T05:41:00.367Z,28.40
2019-05-01T05:41:58.561Z,28.50
2019-05-01T05:42:58.531Z,28.00
2019-05-01T05:43:58.532Z,28.20
2019-05-01T05:44:58.508Z,27.80
2019-05-01T05:45:58.498Z,29.20
2019-05-01T05:46:58.507Z,28.40
2019-05-01T05:47:58.487Z,27.80
2019-05-01T05:48:58.466Z,28.30
2019-05-01T05:49:58.455Z,28.60
2019-05-01T05:50:58.449Z,27.80
2019-05-01T05:51:58.445Z,29.00
2019-05-01T05:52:58.424Z,32.20
2019-05-01T05:53:58.427Z,33.60
2019-05-01T05:54:58.407Z,34.50
2019-05-01T05:55:58.413Z,33.40
2019-05-01T05:56:58.374Z,31.90
2019-05-01T05:57:58.372Z,31.00
2019-05-01T05:58:58.361Z,30.60
2019-05-01T05:59:58.354Z,33.20
2019-05-01T06:00:58.361Z,36.20
2019-05-01T06:01:58.321Z,34.90
2019-05-01T06:02:58.326Z,34.90
2019-05-01T06:03:58.300Z,34.80
2019-05-01T06:04:58.293Z,34.40
2019-05-01T06:05:58.300Z,34.90
2019-05-01T06:06:58.375Z,36.30
2019-05-01T06:07:58.279Z,35.60
2019-05-01T06:08:58.259Z,34.90
2019-05-01T06:09:58.252Z,34.30
2019-05-01T06:11:00.059Z,33.50
2019-05-01T06:11:58.217Z,34.30
2019-05-01T06:12:58.224Z,33.30
2019-05-01T06:13:58.947Z,34.00
2019-05-01T06:15:02.495Z,33.60
2019-05-01T06:15:59.175Z,33.90
2019-05-01T06:16:58.165Z,34.60
2019-05-01T06:17:59.187Z,34.90
2019-05-01T06:18:59.160Z,33.10
2019-05-01T06:19:58.142Z,32.60
2019-05-01T06:21:02.168Z,33.60
2019-05-01T06:21:59.124Z,35.90
2019-05-01T06:22:58.102Z,36.10
2019-05-01T06:24:05.930Z,37.00
2019-05-01T06:24:59.085Z,37.00
2019-05-01T06:25:59.979Z,35.00
2019-05-01T06:26:58.072Z,35.10
2019-05-01T06:27:58.058Z,34.60
2019-05-01T06:29:00.869Z,37.00
2019-05-01T06:29:58.042Z,37.50
2019-05-01T06:30:58.030Z,36.70
2019-05-01T06:31:58.864Z,37.10
2019-05-01T06:32:58.002Z,37.90
2019-05-01T06:33:57.986Z,40.10
2019-05-01T06:34:58.518Z,41.00
2019-05-01T06:35:57.958Z,40.80
2019-05-01T06:36:57.957Z,43.00
2019-05-01T06:38:00.717Z,42.40
2019-05-01T06:38:57.945Z,42.10
2019-05-01T06:39:57.917Z,43.70
2019-05-01T06:40:58.461Z,41.40
2019-05-01T06:41:57.902Z,39.90
2019-05-01T06:42:57.904Z,41.00
2019-05-01T06:44:02.337Z,41.20
2019-05-01T06:44:58.877Z,41.10
2019-05-01T06:45:59.903Z,41.20
2019-05-01T06:47:02.930Z,43.30
2019-05-01T06:47:58.841Z,43.70
2019-05-01T06:48:57.835Z,43.10
2019-05-01T06:50:01.138Z,41.80
2019-05-01T06:50:58.800Z,38.60
2019-05-01T06:51:57.791Z,37.40
2019-05-01T06:52:59.825Z,40.00
2019-05-01T06:53:58.799Z,38.60
2019-05-01T06:54:57.760Z,38.60
2019-05-01T06:55:57.749Z,37.10
2019-05-01T06:56:57.748Z,39.40
2019-05-01T06:57:57.740Z,40.70
2019-05-01T06:58:57.739Z,42.80
2019-05-01T06:59:57.715Z,40.90
2019-05-01T07:00:57.707Z,40.20
2019-05-01T07:01:58.321Z,40.80
2019-05-01T07:02:57.683Z,41.30
2019-05-01T07:04:03.455Z,40.60
2019-05-01T07:04:58.678Z,41.00
2019-05-01T07:05:57.646Z,41.30
2019-05-01T07:06:57.645Z,41.90
2019-05-01T07:07:57.634Z,42.00
2019-05-01T07:08:57.614Z,39.60
2019-05-01T07:09:57.613Z,37.20
2019-05-01T07:10:57.591Z,34.00
2019-05-01T07:11:57.574Z,34.20
2019-05-01T07:12:59.924Z,34.50
2019-05-01T07:13:58.560Z,35.20
2019-05-01T07:14:57.562Z,32.50
2019-05-01T07:15:59.448Z,27.60
2019-05-01T07:16:58.553Z,28.40
2019-05-01T07:18:00.685Z,27.60
2019-05-01T07:18:58.013Z,27.10
2019-05-01T07:19:58.497Z,27.40
2019-05-01T07:20:57.480Z,26.80
2019-05-01T07:21:57.491Z,26.80
2019-05-01T07:22:57.477Z,26.70
2019-05-01T07:23:57.457Z,26.20
2019-05-01T07:24:58.924Z,26.70
2019-05-01T07:25:58.427Z,27.60
2019-05-01T07:26:59.788Z,27.60
2019-05-01T07:27:58.544Z,25.30
2019-05-01T07:28:57.406Z,26.00
2019-05-01T07:29:57.395Z,26.50
2019-05-01T07:30:57.385Z,27.00
2019-05-01T07:31:57.403Z,25.60
2019-05-01T07:32:57.364Z,26.00
2019-05-01T07:33:57.347Z,29.20
2019-05-01T07:35:01.921Z,27.70
2019-05-01T07:35:58.325Z,26.40
2019-05-01T07:36:57.304Z,24.50
2019-05-01T07:37:57.617Z,25.70
2019-05-01T07:38:57.311Z,23.90
2019-05-01T07:39:57.272Z,23.80
2019-05-01T07:40:58.766Z,23.20
2019-05-01T07:41:58.260Z,22.80
2019-05-01T07:42:57.272Z,25.10
2019-05-01T07:43:59.818Z,24.70
2019-05-01T07:44:57.228Z,24.70
2019-05-01T07:45:57.272Z,24.80
2019-05-01T07:46:57.198Z,25.90
2019-05-01T07:48:00.922Z,26.10
2019-05-01T07:48:58.179Z,26.10
2019-05-01T07:49:57.176Z,23.30
2019-05-01T07:50:57.167Z,24.30
2019-05-01T07:51:57.175Z,23.10
2019-05-01T07:52:57.147Z,22.90
2019-05-01T07:53:59.132Z,23.00
2019-05-01T07:54:58.128Z,19.80
2019-05-01T07:55:57.104Z,19.90
2019-05-01T07:56:58.790Z,19.50
2019-05-01T07:57:58.083Z,20.10
2019-05-01T07:58:57.093Z,20.50
2019-05-01T07:59:58.242Z,21.10
2019-05-01T08:00:58.872Z,21.50
2019-05-01T08:01:57.042Z,20.50
2019-05-01T08:02:57.766Z,20.10
2019-05-01T08:03:57.042Z,19.10
2019-05-01T08:04:58.271Z,19.30
2019-05-01T08:05:57.005Z,19.40
2019-05-01T08:06:58.681Z,19.80
2019-05-01T08:07:56.990Z,19.10
2019-05-01T08:08:56.971Z,19.50
2019-05-01T08:09:56.973Z,18.50
2019-05-01T08:10:59.954Z,19.40
2019-05-01T08:11:57.938Z,20.70
2019-05-01T08:13:00.451Z,22.00
2019-05-01T08:14:07.042Z,23.30
2019-05-01T08:14:57.919Z,22.30
2019-05-01T08:15:56.917Z,22.70
2019-05-01T08:16:56.907Z,22.60
2019-05-01T08:17:56.875Z,23.60
2019-05-01T08:18:59.051Z,25.20
2019-05-01T08:19:57.878Z,24.50
2019-05-01T08:20:56.842Z,25.20
2019-05-01T08:22:01.212Z,24.70
2019-05-01T08:22:56.833Z,25.10
2019-05-01T08:23:56.803Z,25.30
2019-05-01T08:24:58.720Z,24.50
2019-05-01T08:25:56.782Z,25.50
2019-05-01T08:26:56.781Z,24.10
2019-05-01T08:27:58.144Z,24.90
2019-05-01T08:28:56.750Z,24.90
2019-05-01T08:29:56.760Z,25.40
2019-05-01T08:30:56.729Z,23.90
2019-05-01T08:31:58.882Z,24.00
2019-05-01T08:32:57.708Z,22.50
2019-05-01T08:33:56.696Z,23.40
2019-05-01T08:35:00.628Z,23.00
2019-05-01T08:35:57.678Z,22.30
2019-05-01T08:36:56.667Z,20.70
2019-05-01T08:37:58.614Z,19.80
2019-05-01T08:38:56.645Z,19.80
2019-05-01T08:39:56.646Z,19.20
2019-05-01T08:40:56.778Z,18.60
2019-05-01T08:41:56.615Z,18.20
2019-05-01T08:42:56.626Z,17.50
2019-05-01T08:43:56.594Z,18.70
2019-05-01T08:44:59.943Z,18.30
2019-05-01T08:45:57.578Z,19.40
2019-05-01T08:46:56.565Z,18.70
2019-05-01T08:47:56.858Z,18.50
2019-05-01T08:48:56.533Z,18.20
2019-05-01T08:49:56.532Z,18.30
2019-05-01T08:50:59.188Z,18.70
2019-05-01T08:51:56.513Z,18.10
2019-05-01T08:52:56.500Z,18.20
2019-05-01T08:53:57.934Z,17.20
2019-05-01T08:54:56.480Z,18.30
2019-05-01T08:55:56.474Z,19.70
2019-05-01T08:56:58.130Z,19.50
2019-05-01T08:57:56.458Z,18.30
2019-05-01T08:58:56.440Z,18.30
2019-05-01T09:00:00.378Z,20.50
2019-05-01T09:00:57.409Z,19.00
2019-05-01T09:02:09.147Z,19.20
2019-05-01T09:03:07.878Z,18.50
2019-05-01T09:03:57.399Z,19.20
2019-05-01T09:05:02.390Z,19.40
2019-05-01T09:05:58.988Z,18.00
2019-05-01T09:06:56.348Z,17.60
2019-05-01T09:07:57.777Z,17.10
2019-05-01T09:08:56.364Z,18.20
2019-05-01T09:09:56.324Z,19.00
2019-05-01T09:11:00.063Z,18.80
2019-05-01T09:11:58.753Z,18.40
2019-05-01T09:12:56.283Z,18.80
2019-05-01T09:13:58.949Z,18.70
2019-05-01T09:14:56.264Z,19.00
2019-05-01T09:15:56.253Z,18.90
2019-05-01T09:16:56.241Z,18.80
2019-05-01T09:17:56.230Z,18.40
2019-05-01T09:18:56.243Z,19.30
2019-05-01T09:19:56.748Z,19.40
2019-05-01T09:20:56.201Z,19.30
2019-05-01T09:21:56.199Z,20.40
2019-05-01T09:22:56.180Z,20.20
2019-05-01T09:23:56.169Z,19.80
2019-05-01T09:24:59.876Z,19.80
2019-05-01T09:25:56.157Z,20.80
2019-05-01T09:26:56.148Z,22.40
2019-05-01T09:27:59.547Z,22.60
2019-05-01T09:28:57.106Z,23.40
2019-05-01T09:29:56.116Z,23.50
2019-05-01T09:31:01.629Z,23.10
2019-05-01T09:31:57.753Z,22.70
2019-05-01T09:32:56.095Z,23.00
2019-05-01T09:33:56.065Z,23.70
2019-05-01T09:34:58.342Z,22.90
2019-05-01T09:35:56.043Z,23.30
2019-05-01T09:36:56.024Z,23.80
2019-05-01T09:37:56.047Z,23.50
2019-05-01T09:38:56.012Z,22.30
2019-05-01T09:39:55.995Z,23.60
2019-05-01T09:40:55.991Z,23.10
2019-05-01T09:41:55.993Z,22.70
2019-05-01T09:42:59.341Z,23.60
2019-05-01T09:43:56.952Z,23.60
2019-05-01T09:44:55.950Z,24.50
2019-05-01T09:45:55.951Z,24.80
2019-05-01T09:46:55.930Z,23.90
2019-05-01T09:47:55.918Z,24.80
2019-05-01T09:48:55.898Z,23.00
2019-05-01T09:49:56.053Z,23.20
2019-05-01T09:50:55.888Z,22.30
2019-05-01T09:51:55.867Z,23.80
2019-05-01T09:52:59.816Z,23.00
2019-05-01T09:53:56.850Z,22.70
2019-05-01T09:54:55.847Z,22.30
2019-05-01T09:55:55.827Z,22.80
2019-05-01T09:56:55.840Z,23.60
2019-05-01T09:57:55.825Z,24.00
2019-05-01T09:58:55.786Z,23.10
2019-05-01T09:59:55.804Z,23.50
2019-05-01T10:00:55.772Z,22.80
2019-05-01T10:01:55.773Z,23.20
2019-05-01T10:02:55.771Z,23.60
2019-05-01T10:03:56.451Z,23.30
2019-05-01T10:04:55.734Z,23.90
2019-05-01T10:05:55.722Z,24.10
2019-05-01T10:06:55.712Z,23.30
2019-05-01T10:08:00.090Z,22.20
2019-05-01T10:08:57.499Z,22.90
2019-05-01T10:09:55.683Z,23.50
2019-05-01T10:11:00.038Z,23.30
2019-05-01T10:11:56.658Z,23.10
2019-05-01T10:12:55.666Z,23.30
2019-05-01T10:13:58.430Z,22.50
2019-05-01T10:14:55.620Z,21.40
2019-05-01T10:15:55.628Z,23.80
2019-05-01T10:16:55.601Z,23.00
2019-05-01T10:17:55.610Z,23.00
2019-05-01T10:18:55.577Z,24.10
2019-05-01T10:19:55.568Z,22.80
2019-05-01T10:20:55.586Z,25.20
2019-05-01T10:21:57.928Z,22.50
2019-05-01T10:22:56.533Z,22.60
2019-05-01T10:23:55.537Z,23.70
2019-05-01T10:24:56.183Z,23.70
2019-05-01T10:25:55.521Z,23.90
2019-05-01T10:27:00.084Z,24.00
2019-05-01T10:27:56.476Z,25.10
2019-05-01T10:28:56.075Z,24.10
2019-05-01T10:30:00.995Z,23.90
2019-05-01T10:30:56.474Z,24.80
2019-05-01T10:31:55.445Z,26.00
2019-05-01T10:32:57.989Z,25.80
2019-05-01T10:33:55.422Z,26.20
2019-05-01T10:34:56.886Z,26.30
2019-05-01T10:35:55.412Z,25.60
2019-05-01T10:36:56.183Z,24.00
2019-05-01T10:37:55.379Z,24.70
2019-05-01T10:38:55.363Z,24.30
2019-05-01T10:39:55.472Z,24.30
2019-05-01T10:40:55.349Z,23.90
2019-05-01T10:41:55.338Z,22.40
2019-05-01T10:42:55.328Z,22.40
2019-05-01T10:43:55.320Z,24.00
2019-05-01T10:44:55.298Z,23.20
2019-05-01T10:45:55.309Z,21.60
2019-05-01T10:46:55.276Z,22.10
2019-05-01T10:47:55.267Z,21.70
2019-05-01T10:48:57.332Z,22.40
2019-05-01T10:49:55.246Z,21.30
2019-05-01T10:50:55.258Z,22.90
2019-05-01T10:51:55.224Z,21.90
2019-05-01T10:52:55.214Z,21.70
2019-05-01T10:53:55.215Z,21.50
2019-05-01T10:54:55.195Z,20.70
2019-05-01T10:55:55.215Z,21.40
2019-05-01T10:56:58.894Z,23.80
2019-05-01T10:57:56.174Z,23.40
2019-05-01T10:58:55.151Z,23.70
2019-05-01T10:59:55.146Z,22.20
2019-05-01T11:00:55.140Z,21.80
2019-05-01T11:01:55.120Z,22.70
2019-05-01T11:02:55.120Z,25.20
2019-05-01T11:03:55.099Z,22.80
2019-05-01T11:04:55.115Z,21.90
2019-05-01T11:05:56.345Z,22.90
2019-05-01T11:06:55.833Z,21.40
2019-05-01T11:07:55.068Z,20.70
2019-05-01T11:08:55.048Z,21.50
2019-05-01T11:09:55.029Z,21.60
2019-05-01T11:10:55.042Z,20.40
2019-05-01T11:11:55.008Z,20.60
2019-05-01T11:12:54.996Z,21.00
2019-05-01T11:13:54.996Z,23.00
2019-05-01T11:14:54.976Z,25.10
2019-05-01T11:15:54.985Z,24.60
2019-05-01T11:16:54.957Z,24.80
2019-05-01T11:17:54.944Z,22.40
2019-05-01T11:18:54.934Z,21.90
2019-05-01T11:19:54.924Z,21.50
2019-05-01T11:20:54.933Z,21.80
2019-05-01T11:21:54.934Z,22.40
2019-05-01T11:22:54.898Z,23.20
2019-05-01T11:23:54.884Z,24.60
2019-05-01T11:24:54.873Z,23.90
2019-05-01T11:25:54.873Z,23.40
2019-05-01T11:26:54.853Z,24.90
2019-05-01T11:27:54.842Z,24.30
2019-05-01T11:28:54.828Z,24.60
2019-05-01T11:29:54.845Z,24.80
2019-05-01T11:30:54.799Z,23.90
2019-05-01T11:31:54.800Z,21.50
2019-05-01T11:32:54.780Z,21.50
2019-05-01T11:33:54.772Z,20.70
2019-05-01T11:34:54.788Z,21.80
2019-05-01T11:35:54.748Z,21.70
2019-05-01T11:36:54.737Z,21.60
2019-05-01T11:37:54.747Z,21.70
2019-05-01T11:38:54.719Z,21.20
2019-05-01T11:39:54.715Z,20.20
2019-05-01T11:40:54.695Z,21.00
2019-05-01T11:41:54.695Z,21.10
2019-05-01T11:42:54.687Z,22.00
2019-05-01T11:43:54.666Z,20.60
2019-05-01T11:44:54.663Z,21.60
2019-05-01T11:45:54.646Z,23.90
2019-05-01T11:46:54.635Z,23.00
2019-05-01T11:47:54.634Z,23.20
2019-05-01T11:48:54.633Z,23.30
2019-05-01T11:49:54.607Z,20.20
2019-05-01T11:50:54.592Z,21.40
2019-05-01T11:51:55.495Z,20.30
2019-05-01T11:52:54.562Z,21.60
2019-05-01T11:53:54.571Z,21.70
2019-05-01T11:54:54.549Z,23.50
2019-05-01T11:55:54.539Z,23.90
2019-05-01T11:56:54.529Z,23.10
2019-05-01T11:57:54.521Z,20.60
2019-05-01T11:58:54.520Z,20.30
2019-05-01T11:59:54.502Z,20.70
2019-05-01T12:00:54.489Z,21.10
2019-05-01T12:01:54.468Z,21.80
2019-05-01T12:02:54.468Z,22.60
2019-05-01T12:03:54.457Z,24.30
2019-05-01T12:04:54.438Z,22.90
2019-05-01T12:05:54.427Z,22.50
2019-05-01T12:06:54.420Z,24.10
2019-05-01T12:07:54.416Z,22.90
2019-05-01T12:08:54.403Z,21.90
2019-05-01T12:09:54.394Z,21.40
2019-05-01T12:10:54.365Z,21.30
2019-05-01T12:11:54.364Z,21.40
2019-05-01T12:12:54.368Z,21.60
2019-05-01T12:13:54.343Z,21.50
2019-05-01T12:14:54.323Z,22.40
2019-05-01T12:15:54.334Z,21.90
2019-05-01T12:16:54.303Z,21.00
2019-05-01T12:17:54.313Z,20.80
2019-05-01T12:18:54.282Z,21.80
2019-05-01T12:19:54.290Z,21.00
2019-05-01T12:20:54.261Z,22.20
2019-05-01T12:21:54.259Z,22.90
2019-05-01T12:22:54.262Z,22.90
2019-05-01T12:23:54.233Z,23.90
2019-05-01T12:24:54.220Z,23.50
2019-05-01T12:25:54.209Z,25.00
2019-05-01T12:26:54.201Z,22.00
2019-05-01T12:27:54.200Z,21.20
2019-05-01T12:28:54.178Z,21.60
2019-05-01T12:29:54.188Z,22.90
2019-05-01T12:30:54.157Z,24.20
2019-05-01T12:31:54.166Z,22.80
2019-05-01T12:32:54.127Z,22.90
2019-05-01T12:33:54.148Z,23.50
2019-05-01T12:34:54.116Z,23.00
2019-05-01T12:35:54.105Z,21.60
2019-05-01T12:36:54.105Z,21.20
2019-05-01T12:37:55.477Z,21.80
2019-05-01T12:38:54.074Z,22.40
2019-05-01T12:39:54.076Z,22.70
2019-05-01T12:40:54.053Z,23.40
2019-05-01T12:41:54.053Z,22.90
2019-05-01T12:42:54.026Z,23.20
2019-05-01T12:43:54.022Z,28.70
2019-05-01T12:44:54.005Z,24.40
2019-05-01T12:45:54.023Z,24.60
2019-05-01T12:46:53.982Z,26.60
2019-05-01T12:47:53.972Z,24.00
2019-05-01T12:48:54.695Z,25.20
2019-05-01T12:49:53.961Z,23.40
2019-05-01T12:50:53.953Z,23.90
2019-05-01T12:51:53.938Z,25.20
2019-05-01T12:52:53.919Z,23.60
2019-05-01T12:53:53.910Z,23.40